sensor_id;sensor_type;location;lat;lon;timestamp;pressure;altitude;pressure_sealevel;temperature;humidity
51249;BME280;39642;47.556;18.728;2023-02-15T00:00:31;101259.50;;;21.79;27.96
51249;BME280;39642;47.556;18.728;2023-02-15T00:02:57;101259.50;;;21.79;27.89
51249;BME280;39642;47.556;18.728;2023-02-15T00:05:23;101262.16;;;21.79;27.78
51249;BME280;39642;47.556;18.728;2023-02-15T00:07:49;101258.66;;;21.78;27.65
51249;BME280;39642;47.556;18.728;2023-02-15T00:10:15;101260.44;;;21.78;27.40
51249;BME280;39642;47.556;18.728;2023-02-15T00:12:41;101262.16;;;21.79;27.58
51249;BME280;39642;47.556;18.728;2023-02-15T00:15:07;101266.59;;;21.78;27.65
51249;BME280;39642;47.556;18.728;2023-02-15T00:17:33;101273.69;;;21.78;27.84
51249;BME280;39642;47.556;18.728;2023-02-15T00:19:59;101262.25;;;21.77;27.69
51249;BME280;39642;47.556;18.728;2023-02-15T00:22:25;101266.75;;;21.75;27.29
51249;BME280;39642;47.556;18.728;2023-02-15T00:24:51;101264.94;;;21.76;27.36
51249;BME280;39642;47.556;18.728;2023-02-15T00:27:17;101260.53;;;21.75;27.38
51249;BME280;39642;47.556;18.728;2023-02-15T00:29:43;101272.94;;;21.74;27.39
51249;BME280;39642;47.556;18.728;2023-02-15T00:32:08;101264.09;;;21.75;27.49
51249;BME280;39642;47.556;18.728;2023-02-15T00:34:34;101272.94;;;21.74;27.58
51249;BME280;39642;47.556;18.728;2023-02-15T00:37:00;101269.44;;;21.74;27.23
51249;BME280;39642;47.556;18.728;2023-02-15T00:39:26;101269.44;;;21.74;27.79
51249;BME280;39642;47.556;18.728;2023-02-15T00:41:52;101267.69;;;21.73;27.84
51249;BME280;39642;47.556;18.728;2023-02-15T00:44:18;101265.03;;;21.73;28.00
51249;BME280;39642;47.556;18.728;2023-02-15T00:46:44;101260.63;;;21.73;27.99
51249;BME280;39642;47.556;18.728;2023-02-15T00:49:10;101256.19;;;21.74;27.91
51249;BME280;39642;47.556;18.728;2023-02-15T00:51:36;101264.13;;;21.74;27.92
51249;BME280;39642;47.556;18.728;2023-02-15T00:54:02;101260.53;;;21.75;27.93
51249;BME280;39642;47.556;18.728;2023-02-15T00:56:28;101260.53;;;21.75;27.87
51249;BME280;39642;47.556;18.728;2023-02-15T00:58:54;101257.00;;;21.76;27.88
51249;BME280;39642;47.556;18.728;2023-02-15T01:01:20;101258.78;;;21.75;27.85
51249;BME280;39642;47.556;18.728;2023-02-15T01:03:46;101256.06;;;21.77;27.85
51249;BME280;39642;47.556;18.728;2023-02-15T01:06:14;101257.78;;;21.78;27.79
51249;BME280;39642;47.556;18.728;2023-02-15T01:08:41;101247.19;;;21.78;27.58
51249;BME280;39642;47.556;18.728;2023-02-15T01:11:10;101248.91;;;21.79;27.68
51249;BME280;39642;47.556;18.728;2023-02-15T01:13:37;101250.66;;;21.80;27.82
51249;BME280;39642;47.556;18.728;2023-02-15T01:16:04;101241.75;;;21.81;27.68
51249;BME280;39642;47.556;18.728;2023-02-15T01:18:30;101240.91;;;21.80;27.64
51249;BME280;39642;47.556;18.728;2023-02-15T01:20:56;101246.19;;;21.80;27.57
51249;BME280;39642;47.556;18.728;2023-02-15T01:23:23;101244.41;;;21.81;27.56
51249;BME280;39642;47.556;18.728;2023-02-15T01:25:49;101242.59;;;21.81;27.48
51249;BME280;39642;47.556;18.728;2023-02-15T01:28:15;101239.09;;;21.81;27.52
51249;BME280;39642;47.556;18.728;2023-02-15T01:30:41;101237.37;;;21.80;27.42
51249;BME280;39642;47.556;18.728;2023-02-15T01:33:07;101232.09;;;21.80;27.26
51249;BME280;39642;47.556;18.728;2023-02-15T01:35:36;101234.72;;;21.80;26.90
51249;BME280;39642;47.556;18.728;2023-02-15T01:38:02;101235.66;;;21.79;27.11
51249;BME280;39642;47.556;18.728;2023-02-15T01:40:28;101233.94;;;21.78;26.94
51249;BME280;39642;47.556;18.728;2023-02-15T01:42:55;101229.53;;;21.77;27.28
51249;BME280;39642;47.556;18.728;2023-02-15T01:45:30;101221.59;;;21.77;27.01
51249;BME280;39642;47.556;18.728;2023-02-15T01:48:16;101225.19;;;21.76;27.42
51249;BME280;39642;47.556;18.728;2023-02-15T01:50:49;101226.97;;;21.75;26.73
51249;BME280;39642;47.556;18.728;2023-02-15T01:53:36;101221.66;;;21.75;27.22
51249;BME280;39642;47.556;18.728;2023-02-15T01:56:17;101219.94;;;21.74;26.59
51249;BME280;39642;47.556;18.728;2023-02-15T01:58:44;101211.12;;;21.74;26.81
51249;BME280;39642;47.556;18.728;2023-02-15T02:01:11;101215.56;;;21.73;26.93
51249;BME280;39642;47.556;18.728;2023-02-15T02:04:02;101213.75;;;21.74;27.07
51249;BME280;39642;47.556;18.728;2023-02-15T02:06:30;101212.03;;;21.73;27.35
51249;BME280;39642;47.556;18.728;2023-02-15T02:08:57;101204.06;;;21.73;27.39
51249;BME280;39642;47.556;18.728;2023-02-15T02:11:23;101210.25;;;21.73;27.37
51249;BME280;39642;47.556;18.728;2023-02-15T02:13:51;101203.16;;;21.74;27.36
51249;BME280;39642;47.556;18.728;2023-02-15T02:16:56;101206.66;;;21.74;27.44
51249;BME280;39642;47.556;18.728;2023-02-15T02:19:32;101202.22;;;21.75;27.33
51249;BME280;39642;47.556;18.728;2023-02-15T02:41:42;101204.56;;;21.82;27.14
51249;BME280;39642;47.556;18.728;2023-02-15T02:44:22;101207.22;;;21.82;26.99
51249;BME280;39642;47.556;18.728;2023-02-15T02:46:51;101210.72;;;21.83;27.05
51249;BME280;39642;47.556;18.728;2023-02-15T02:49:29;101209.87;;;21.82;27.18
51249;BME280;39642;47.556;18.728;2023-02-15T02:52:04;101206.37;;;21.82;27.07
51249;BME280;39642;47.556;18.728;2023-02-15T02:54:33;101203.72;;;21.82;27.03
51249;BME280;39642;47.556;18.728;2023-02-15T02:57:03;101205.47;;;21.81;27.05
51249;BME280;39642;47.556;18.728;2023-02-15T02:59:35;101204.62;;;21.81;26.83
51249;BME280;39642;47.556;18.728;2023-02-15T03:02:13;101198.47;;;21.80;26.97
51249;BME280;39642;47.556;18.728;2023-02-15T03:04:47;101197.62;;;21.80;26.75
51249;BME280;39642;47.556;18.728;2023-02-15T03:07:24;101206.47;;;21.79;26.64
51249;BME280;39642;47.556;18.728;2023-02-15T03:09:54;101200.31;;;21.78;26.73
51249;BME280;39642;47.556;18.728;2023-02-15T03:15:02;101197.72;;;21.77;26.34
51249;BME280;39642;47.556;18.728;2023-02-15T03:17:30;101201.31;;;21.76;26.72
51249;BME280;39642;47.556;18.728;2023-02-15T03:20:00;101208.31;;;21.77;26.61
51249;BME280;39642;47.556;18.728;2023-02-15T03:22:37;101208.41;;;21.75;26.63
51249;BME280;39642;47.556;18.728;2023-02-15T03:25:08;101197.81;;;21.75;26.83
51249;BME280;39642;47.556;18.728;2023-02-15T03:27:40;101205.81;;;21.74;26.71
51249;BME280;39642;47.556;18.728;2023-02-15T03:30:08;101206.72;;;21.73;26.77
51249;BME280;39642;47.556;18.728;2023-02-15T03:32:37;101214.69;;;21.73;27.10
51249;BME280;39642;47.556;18.728;2023-02-15T03:35:05;101212.91;;;21.73;26.91
51249;BME280;39642;47.556;18.728;2023-02-15T03:40:03;101210.25;;;21.73;26.99
51249;BME280;39642;47.556;18.728;2023-02-15T03:45:52;101216.37;;;21.75;26.27
51249;BME280;39642;47.556;18.728;2023-02-15T03:48:24;101211.06;;;21.75;26.29
51249;BME280;39642;47.556;18.728;2023-02-15T03:50:54;101212.72;;;21.78;26.29
51249;BME280;39642;47.556;18.728;2023-02-15T03:53:42;101210.06;;;21.78;26.34
51249;BME280;39642;47.556;18.728;2023-02-15T03:56:09;101211.78;;;21.79;26.28
51249;BME280;39642;47.556;18.728;2023-02-15T03:58:35;101210.88;;;21.80;26.13
51249;BME280;39642;47.556;18.728;2023-02-15T04:01:27;101210.78;;;21.81;26.21
51249;BME280;39642;47.556;18.728;2023-02-15T04:04:18;101209.03;;;21.82;26.05
51249;BME280;39642;47.556;18.728;2023-02-15T04:06:45;101217.84;;;21.82;26.09
51249;BME280;39642;47.556;18.728;2023-02-15T04:09:11;101213.37;;;21.83;25.71
51249;BME280;39642;47.556;18.728;2023-02-15T04:11:56;101212.44;;;21.84;26.40
51249;BME280;39642;47.556;18.728;2023-02-15T04:14:22;101211.53;;;21.85;26.51
51249;BME280;39642;47.556;18.728;2023-02-15T04:17:08;101214.19;;;21.85;26.52
51249;BME280;39642;47.556;18.728;2023-02-15T04:19:34;101208.09;;;21.83;26.48
51249;BME280;39642;47.556;18.728;2023-02-15T04:22:18;101214.25;;;21.83;26.58
51249;BME280;39642;47.556;18.728;2023-02-15T04:25:03;101218.69;;;21.83;26.49
51249;BME280;39642;47.556;18.728;2023-02-15T04:27:43;101207.22;;;21.82;26.69
51249;BME280;39642;47.556;18.728;2023-02-15T04:30:11;101211.66;;;21.82;26.50
51249;BME280;39642;47.556;18.728;2023-02-15T04:32:38;101215.22;;;21.81;26.62
51249;BME280;39642;47.556;18.728;2023-02-15T04:35:05;101217.03;;;21.80;26.41
51249;BME280;39642;47.556;18.728;2023-02-15T04:37:32;101218.81;;;21.80;26.10
51249;BME280;39642;47.556;18.728;2023-02-15T04:39:57;101211.78;;;21.79;26.47
51249;BME280;39642;47.556;18.728;2023-02-15T04:42:27;101213.56;;;21.78;26.21
51249;BME280;39642;47.556;18.728;2023-02-15T04:44:53;101210.06;;;21.78;25.78
51249;BME280;39642;47.556;18.728;2023-02-15T04:47:20;101209.22;;;21.77;26.32
51249;BME280;39642;47.556;18.728;2023-02-15T04:49:46;101218.94;;;21.77;26.33
51249;BME280;39642;47.556;18.728;2023-02-15T04:52:12;101220.72;;;21.76;26.40
51249;BME280;39642;47.556;18.728;2023-02-15T04:54:38;101205.81;;;21.74;26.07
51249;BME280;39642;47.556;18.728;2023-02-15T04:57:05;101211.06;;;21.75;26.17
51249;BME280;39642;47.556;18.728;2023-02-15T04:59:31;101217.28;;;21.74;25.96
51249;BME280;39642;47.556;18.728;2023-02-15T05:01:57;101213.75;;;21.74;26.57
51249;BME280;39642;47.556;18.728;2023-02-15T05:04:23;101210.31;;;21.72;26.09
51249;BME280;39642;47.556;18.728;2023-02-15T05:06:49;101217.31;;;21.73;26.52
51249;BME280;39642;47.556;18.728;2023-02-15T05:09:15;101210.31;;;21.72;26.43
51249;BME280;39642;47.556;18.728;2023-02-15T05:11:41;101213.81;;;21.72;26.34
51249;BME280;39642;47.556;18.728;2023-02-15T05:14:07;101222.72;;;21.71;26.61
51249;BME280;39642;47.556;18.728;2023-02-15T05:16:33;101220.06;;;21.71;25.97
51249;BME280;39642;47.556;18.728;2023-02-15T05:18:59;101220.91;;;21.72;25.25
51249;BME280;39642;47.556;18.728;2023-02-15T05:21:25;101229.72;;;21.72;26.01
51249;BME280;39642;47.556;18.728;2023-02-15T05:23:51;101234.16;;;21.72;27.04
51249;BME280;39642;47.556;18.728;2023-02-15T05:26:20;101230.66;;;21.71;25.92
51249;BME280;39642;47.556;18.728;2023-02-15T05:29:05;101234.16;;;21.72;25.96
51249;BME280;39642;47.556;18.728;2023-02-15T05:31:31;101228.91;;;21.70;26.16
51249;BME280;39642;47.556;18.728;2023-02-15T05:33:57;101231.56;;;21.70;26.09
51249;BME280;39642;47.556;18.728;2023-02-15T05:36:23;101222.75;;;21.70;25.94
51249;BME280;39642;47.556;18.728;2023-02-15T05:38:49;101230.66;;;21.71;25.75
51249;BME280;39642;47.556;18.728;2023-02-15T05:41:15;101232.38;;;21.72;26.07
51249;BME280;39642;47.556;18.728;2023-02-15T05:43:41;101234.16;;;21.72;26.13
51249;BME280;39642;47.556;18.728;2023-02-15T05:46:07;101243.84;;;21.73;25.17
51249;BME280;39642;47.556;18.728;2023-02-15T05:48:34;101241.13;;;21.74;24.85
51249;BME280;39642;47.556;18.728;2023-02-15T05:53:34;101243.78;;;21.74;25.30
51249;BME280;39642;47.556;18.728;2023-02-15T05:56:01;101246.38;;;21.76;25.48
51249;BME280;39642;47.556;18.728;2023-02-15T05:58:30;101244.59;;;21.76;26.56
51249;BME280;39642;47.556;18.728;2023-02-15T06:00:56;101253.41;;;21.77;26.57
51249;BME280;39642;47.556;18.728;2023-02-15T06:03:23;101249.88;;;21.76;25.23
51249;BME280;39642;47.556;18.728;2023-02-15T06:05:52;101254.28;;;21.77;26.68
51249;BME280;39642;47.556;18.728;2023-02-15T06:08:18;101258.66;;;21.78;26.49
51249;BME280;39642;47.556;18.728;2023-02-15T06:10:47;101259.50;;;21.79;26.26
51249;BME280;39642;47.556;18.728;2023-02-15T06:13:13;101248.00;;;21.80;26.86
51249;BME280;39642;47.556;18.728;2023-02-15T06:15:39;101252.34;;;21.81;26.90
51249;BME280;39642;47.556;18.728;2023-02-15T06:18:05;101250.56;;;21.81;26.17
51249;BME280;39642;47.556;18.728;2023-02-15T06:20:31;101250.50;;;21.83;26.53
51249;BME280;39642;47.556;18.728;2023-02-15T06:22:57;101253.16;;;21.83;26.50
51249;BME280;39642;47.556;18.728;2023-02-15T06:25:22;101261.97;;;21.83;26.80
51249;BME280;39642;47.556;18.728;2023-02-15T06:27:50;101261.97;;;21.83;26.77
51249;BME280;39642;47.556;18.728;2023-02-15T06:30:16;101266.28;;;21.86;26.63
51249;BME280;39642;47.556;18.728;2023-02-15T06:32:43;101262.72;;;21.87;26.31
51249;BME280;39642;47.556;18.728;2023-02-15T06:35:09;101260.16;;;21.84;26.75
51249;BME280;39642;47.556;18.728;2023-02-15T06:37:35;101261.91;;;21.85;26.55
51249;BME280;39642;47.556;18.728;2023-02-15T06:40:01;101264.50;;;21.87;26.68
51249;BME280;39642;47.556;18.728;2023-02-15T06:42:27;101259.31;;;21.83;26.70
51249;BME280;39642;47.556;18.728;2023-02-15T06:44:53;101262.81;;;21.84;26.12
51249;BME280;39642;47.556;18.728;2023-02-15T06:47:18;101273.50;;;21.82;25.98
51249;BME280;39642;47.556;18.728;2023-02-15T06:49:44;101266.56;;;21.80;26.18
51249;BME280;39642;47.556;18.728;2023-02-15T06:52:10;101266.59;;;21.78;26.50
51249;BME280;39642;47.556;18.728;2023-02-15T06:54:36;101265.94;;;21.73;26.10
51249;BME280;39642;47.556;18.728;2023-02-15T06:57:03;101268.78;;;21.69;25.38
51249;BME280;39642;47.556;18.728;2023-02-15T06:59:29;101268.06;;;21.63;25.71
51249;BME280;39642;47.556;18.728;2023-02-15T07:01:55;101271.78;;;21.59;25.68
51249;BME280;39642;47.556;18.728;2023-02-15T07:04:22;101268.19;;;21.60;25.85
51249;BME280;39642;47.556;18.728;2023-02-15T07:06:48;101268.19;;;21.60;25.76
51249;BME280;39642;47.556;18.728;2023-02-15T07:09:14;101264.56;;;21.63;26.24
51249;BME280;39642;47.556;18.728;2023-02-15T07:11:46;101267.97;;;21.67;25.87
51249;BME280;39642;47.556;18.728;2023-02-15T07:14:30;101280.22;;;21.69;25.66
51249;BME280;39642;47.556;18.728;2023-02-15T07:16:57;101283.56;;;21.74;25.55
51249;BME280;39642;47.556;18.728;2023-02-15T07:19:26;101274.59;;;21.77;25.51
51249;BME280;39642;47.556;18.728;2023-02-15T07:21:55;101282.47;;;21.80;25.55
51249;BME280;39642;47.556;18.728;2023-02-15T07:24:21;101270.06;;;21.80;25.39
51249;BME280;39642;47.556;18.728;2023-02-15T07:26:47;101272.56;;;21.83;26.05
51249;BME280;39642;47.556;18.728;2023-02-15T07:29:14;101271.59;;;21.86;25.81
51249;BME280;39642;47.556;18.728;2023-02-15T07:31:41;101268.03;;;21.87;25.80
51249;BME280;39642;47.556;18.728;2023-02-15T07:34:11;101264.44;;;21.88;25.82
51249;BME280;39642;47.556;18.728;2023-02-15T07:36:37;101272.28;;;21.91;25.89
51249;BME280;39642;47.556;18.728;2023-02-15T07:39:04;101269.50;;;21.94;25.78
51249;BME280;39642;47.556;18.728;2023-02-15T07:41:31;101274.66;;;21.97;26.22
51249;BME280;39642;47.556;18.728;2023-02-15T07:43:58;101276.25;;;22.01;26.23
51249;BME280;39642;47.556;18.728;2023-02-15T07:46:24;101275.28;;;22.04;26.92
51249;BME280;39642;47.556;18.728;2023-02-15T07:48:50;101269.00;;;22.07;26.62
51249;BME280;39642;47.556;18.728;2023-02-15T07:51:17;101263.56;;;22.10;26.25
51249;BME280;39642;47.556;18.728;2023-02-15T07:53:43;101263.41;;;22.13;26.28
51249;BME280;39642;47.556;18.728;2023-02-15T07:56:11;101264.22;;;22.15;26.69
51249;BME280;39642;47.556;18.728;2023-02-15T07:58:37;101266.81;;;22.16;27.99
51249;BME280;39642;47.556;18.728;2023-02-15T08:01:33;101257.81;;;22.20;28.20
51249;BME280;39642;47.556;18.728;2023-02-15T08:03:59;101259.50;;;22.23;27.41
51249;BME280;39642;47.556;18.728;2023-02-15T08:06:30;101264.88;;;22.20;26.95
51249;BME280;39642;47.556;18.728;2023-02-15T08:08:56;101264.03;;;22.19;27.25
51249;BME280;39642;47.556;18.728;2023-02-15T08:11:28;101260.66;;;22.16;26.87
51249;BME280;39642;47.556;18.728;2023-02-15T08:14:06;101251.81;;;22.15;27.08
51249;BME280;39642;47.556;18.728;2023-02-15T08:16:40;101264.16;;;22.16;26.91
51249;BME280;39642;47.556;18.728;2023-02-15T08:21:44;101253.56;;;22.16;26.42
51249;BME280;39642;47.556;18.728;2023-02-15T08:24:14;101250.91;;;22.16;26.40
51249;BME280;39642;47.556;18.728;2023-02-15T08:26:40;101246.50;;;22.15;26.41
51249;BME280;39642;47.556;18.728;2023-02-15T08:29:09;101237.63;;;22.16;26.39
51249;BME280;39642;47.556;18.728;2023-02-15T08:31:35;101233.19;;;22.17;26.25
51249;BME280;39642;47.556;18.728;2023-02-15T08:34:03;101234.84;;;22.19;26.17
51249;BME280;39642;47.556;18.728;2023-02-15T08:36:30;101240.16;;;22.19;26.11
51249;BME280;39642;47.556;18.728;2023-02-15T08:38:58;101239.28;;;22.19;26.15
51249;BME280;39642;47.556;18.728;2023-02-15T08:41:27;101243.75;;;22.18;26.77
51249;BME280;39642;47.556;18.728;2023-02-15T08:43:56;101244.75;;;22.16;26.40
51249;BME280;39642;47.556;18.728;2023-02-15T08:46:24;101242.12;;;22.14;26.50
51249;BME280;39642;47.556;18.728;2023-02-15T08:48:51;101249.34;;;22.11;27.31
51249;BME280;39642;47.556;18.728;2023-02-15T08:51:20;101242.28;;;22.11;27.13
51249;BME280;39642;47.556;18.728;2023-02-15T08:53:48;101245.78;;;22.12;26.66
51249;BME280;39642;47.556;18.728;2023-02-15T08:56:15;101242.12;;;22.14;27.61
51249;BME280;39642;47.556;18.728;2023-02-15T08:58:41;101239.44;;;22.16;27.94
51249;BME280;39642;47.556;18.728;2023-02-15T09:01:12;101235.84;;;22.17;28.42
51249;BME280;39642;47.556;18.728;2023-02-15T09:03:39;101239.50;;;22.14;27.76
51249;BME280;39642;47.556;18.728;2023-02-15T09:06:06;101232.38;;;22.15;27.37
51249;BME280;39642;47.556;18.728;2023-02-15T09:19:17;101243.41;;;22.67;27.09
51249;BME280;39642;47.556;18.728;2023-02-15T09:21:43;101243.41;;;22.67;27.09
51249;BME280;39642;47.556;18.728;2023-02-15T09:24:12;101248.44;;;22.12;28.21
51249;BME280;39642;47.556;18.728;2023-02-15T09:26:43;101237.94;;;22.09;28.40
51249;BME280;39642;47.556;18.728;2023-02-15T09:29:10;101237.16;;;22.07;28.79
51249;BME280;39642;47.556;18.728;2023-02-15T09:31:42;101238.94;;;22.06;28.71
51249;BME280;39642;47.556;18.728;2023-02-15T09:34:10;101234.53;;;22.07;28.92
51249;BME280;39642;47.556;18.728;2023-02-15T09:36:38;101231.78;;;22.08;29.21
51249;BME280;39642;47.556;18.728;2023-02-15T09:39:15;101231.72;;;22.10;29.36
51249;BME280;39642;47.556;18.728;2023-02-15T09:44:55;101228.88;;;22.14;29.84
51249;BME280;39642;47.556;18.728;2023-02-15T09:53:22;101218.00;;;22.20;29.31
51249;BME280;39642;47.556;18.728;2023-02-15T09:56:19;101229.47;;;22.21;29.18
51249;BME280;39642;47.556;18.728;2023-02-15T10:19:21;101222.25;;;22.24;28.90
51249;BME280;39642;47.556;18.728;2023-02-15T10:27:18;101215.91;;;22.29;29.15
51249;BME280;39642;47.556;18.728;2023-02-15T10:32:34;101213.19;;;22.30;28.75
51249;BME280;39642;47.556;18.728;2023-02-15T10:54:16;101193.97;;;22.25;28.92
51249;BME280;39642;47.556;18.728;2023-02-15T10:56:52;101187.94;;;22.20;28.93
51249;BME280;39642;47.556;18.728;2023-02-15T11:11:30;101157.84;;;22.81;28.35
51249;BME280;39642;47.556;18.728;2023-02-15T11:14:02;101157.84;;;22.81;28.35
51249;BME280;39642;47.556;18.728;2023-02-15T11:16:34;101159.37;;;22.27;28.42
51249;BME280;39642;47.556;18.728;2023-02-15T11:19:09;101154.06;;;22.27;28.76
51249;BME280;39642;47.556;18.728;2023-02-15T11:21:40;101154.06;;;22.27;28.79
51249;BME280;39642;47.556;18.728;2023-02-15T11:24:10;101152.22;;;22.29;29.08
51249;BME280;39642;47.556;18.728;2023-02-15T11:32:03;101148.56;;;22.31;28.70
51249;BME280;39642;47.556;18.728;2023-02-15T11:34:40;101140.59;;;22.31;28.78
51249;BME280;39642;47.556;18.728;2023-02-15T11:37:17;101136.25;;;22.30;28.65
51249;BME280;39642;47.556;18.728;2023-02-15T11:39:44;101139.69;;;22.32;28.63
51249;BME280;39642;47.556;18.728;2023-02-15T11:42:14;101136.38;;;22.27;28.82
51249;BME280;39642;47.556;18.728;2023-02-15T11:45:02;101127.81;;;22.20;29.74
51249;BME280;39642;47.556;18.728;2023-02-15T11:47:30;101124.25;;;22.21;30.31
51249;BME280;39642;47.556;18.728;2023-02-15T11:49:56;101118.78;;;22.24;30.77
51249;BME280;39642;47.556;18.728;2023-02-15T11:52:23;101120.75;;;22.19;30.91
51249;BME280;39642;47.556;18.728;2023-02-15T11:54:50;101120.69;;;22.21;31.95
51249;BME280;39642;47.556;18.728;2023-02-15T11:57:23;101115.44;;;22.19;31.58
51249;BME280;39642;47.556;18.728;2023-02-15T11:59:59;101108.34;;;22.20;31.56
51249;BME280;39642;47.556;18.728;2023-02-15T12:02:27;101111.94;;;22.19;31.61
51249;BME280;39642;47.556;18.728;2023-02-15T12:04:59;101111.09;;;22.18;31.39
51249;BME280;39642;47.556;18.728;2023-02-15T12:07:41;101112.94;;;22.16;31.50
51249;BME280;39642;47.556;18.728;2023-02-15T12:10:30;101110.34;;;22.15;32.38
51249;BME280;39642;47.556;18.728;2023-02-15T12:13:11;101103.19;;;22.17;33.15
51249;BME280;39642;47.556;18.728;2023-02-15T12:15:41;101105.84;;;22.17;32.51
51249;BME280;39642;47.556;18.728;2023-02-15T12:20:44;101100.53;;;22.17;31.87
51249;BME280;39642;47.556;18.728;2023-02-15T12:23:15;101101.47;;;22.16;31.44
51249;BME280;39642;47.556;18.728;2023-02-15T12:25:48;101103.34;;;22.14;31.72
51249;BME280;39642;47.556;18.728;2023-02-15T12:28:33;101093.63;;;22.13;31.23
51249;BME280;39642;47.556;18.728;2023-02-15T12:31:02;101084.81;;;22.12;31.72
51249;BME280;39642;47.556;18.728;2023-02-15T12:33:39;101095.38;;;22.14;31.72
51249;BME280;39642;47.556;18.728;2023-02-15T12:36:21;101085.56;;;22.16;31.65
51249;BME280;39642;47.556;18.728;2023-02-15T12:41:33;101083.75;;;22.16;35.82
51249;BME280;39642;47.556;18.728;2023-02-15T12:44:21;101081.34;;;21.91;33.16
51249;BME280;39642;47.556;18.728;2023-02-15T12:47:20;101074.19;;;21.93;32.45
51249;BME280;39642;47.556;18.728;2023-02-15T12:50:23;101060.84;;;21.95;31.22
51249;BME280;39642;47.556;18.728;2023-02-15T12:53:06;101063.44;;;21.96;29.90
51249;BME280;39642;47.556;18.728;2023-02-15T12:55:33;101064.37;;;21.95;28.79
51249;BME280;39642;47.556;18.728;2023-02-15T12:58:44;101057.47;;;21.91;29.58
51249;BME280;39642;47.556;18.728;2023-02-15T13:01:12;101058.47;;;21.89;29.91
51249;BME280;39642;47.556;18.728;2023-02-15T13:06:24;101049.94;;;21.82;30.71
51249;BME280;39642;47.556;18.728;2023-02-15T13:08:53;101048.00;;;21.86;30.83
51249;BME280;39642;47.556;18.728;2023-02-15T13:11:29;101044.34;;;21.88;30.09
51249;BME280;39642;47.556;18.728;2023-02-15T13:14:15;101036.25;;;21.91;30.48
51249;BME280;39642;47.556;18.728;2023-02-15T13:16:44;101045.81;;;21.95;29.87
51249;BME280;39642;47.556;18.728;2023-02-15T13:19:30;101044.13;;;21.93;29.71
51249;BME280;39642;47.556;18.728;2023-02-15T13:22:05;101042.38;;;21.93;28.89
51249;BME280;39642;47.556;18.728;2023-02-15T13:27:05;101026.34;;;21.95;28.65
51249;BME280;39642;47.556;18.728;2023-02-15T13:29:36;101030.81;;;21.94;28.57
51249;BME280;39642;47.556;18.728;2023-02-15T13:32:10;101021.22;;;21.92;28.77
51249;BME280;39642;47.556;18.728;2023-02-15T13:34:39;101032.59;;;21.94;28.89
51249;BME280;39642;47.556;18.728;2023-02-15T13:37:15;101030.97;;;21.91;29.28
51249;BME280;39642;47.556;18.728;2023-02-15T13:39:51;101033.53;;;21.93;29.49
51249;BME280;39642;47.556;18.728;2023-02-15T13:42:27;101019.34;;;21.94;29.36
51249;BME280;39642;47.556;18.728;2023-02-15T13:47:32;101011.25;;;21.97;28.77
51249;BME280;39642;47.556;18.728;2023-02-15T14:01:33;101012.63;;;22.06;29.66
51249;BME280;39642;47.556;18.728;2023-02-15T14:10:42;101003.44;;;22.13;31.79
51249;BME280;39642;47.556;18.728;2023-02-15T14:21:32;101015.59;;;22.18;33.21
51249;BME280;39642;47.556;18.728;2023-02-15T14:26:49;101006.78;;;22.18;32.94
51249;BME280;39642;47.556;18.728;2023-02-15T14:32:25;101007.63;;;22.18;32.71
51249;BME280;39642;47.556;18.728;2023-02-15T14:34:55;101004.19;;;22.16;34.85
51249;BME280;39642;47.556;18.728;2023-02-15T14:37:58;101006.19;;;22.11;34.17
51249;BME280;39642;47.556;18.728;2023-02-15T14:44:25;100995.12;;;22.01;33.87
51249;BME280;39642;47.556;18.728;2023-02-15T14:47:05;100994.41;;;21.98;34.31
51249;BME280;39642;47.556;18.728;2023-02-15T14:49:37;100992.09;;;21.90;33.93
51249;BME280;39642;47.556;18.728;2023-02-15T14:52:08;100984.22;;;21.89;31.79
51249;BME280;39642;47.556;18.728;2023-02-15T15:07:22;100983.44;;;21.87;32.50
51249;BME280;39642;47.556;18.728;2023-02-15T15:25:56;100976.28;;;21.89;31.88
51249;BME280;39642;47.556;18.728;2023-02-15T15:34:21;100971.09;;;21.86;31.08
51249;BME280;39642;47.556;18.728;2023-02-15T15:40:04;100968.38;;;21.87;31.78
51249;BME280;39642;47.556;18.728;2023-02-15T15:48:36;100964.94;;;21.85;34.23
51249;BME280;39642;47.556;18.728;2023-02-15T15:51:22;100962.50;;;21.80;35.33
51249;BME280;39642;47.556;18.728;2023-02-15T15:53:52;100960.84;;;21.78;36.14
51249;BME280;39642;47.556;18.728;2023-02-15T15:56:22;100967.06;;;21.77;37.25
51249;BME280;39642;47.556;18.728;2023-02-15T15:58:53;100963.63;;;21.75;36.12
51249;BME280;39642;47.556;18.728;2023-02-15T16:01:34;100970.72;;;21.74;35.82
51249;BME280;39642;47.556;18.728;2023-02-15T16:04:01;100960.97;;;21.75;36.68
51249;BME280;39642;47.556;18.728;2023-02-15T16:08:53;100956.47;;;21.77;35.77
51249;BME280;39642;47.556;18.728;2023-02-15T16:11:29;100962.66;;;21.77;35.42
51249;BME280;39642;47.556;18.728;2023-02-15T16:13:55;100967.00;;;21.78;33.08
51249;BME280;39642;47.556;18.728;2023-02-15T16:16:27;100959.91;;;21.79;33.63
51249;BME280;39642;47.556;18.728;2023-02-15T16:18:55;100962.50;;;21.80;34.21
51249;BME280;39642;47.556;18.728;2023-02-15T16:21:34;100959.84;;;21.80;32.64
51249;BME280;39642;47.556;18.728;2023-02-15T16:24:08;100963.41;;;21.79;33.71
51249;BME280;39642;47.556;18.728;2023-02-15T16:27:36;100966.00;;;21.81;33.34
51249;BME280;39642;47.556;18.728;2023-02-15T16:30:32;100959.84;;;21.80;33.08
51249;BME280;39642;47.556;18.728;2023-02-15T16:33:08;100975.69;;;21.82;32.81